createdAt,value
2022-11-07T00:00:26.994Z,3.72
2022-11-07T00:02:53.454Z,3.75
2022-11-07T00:05:19.941Z,3.75
2022-11-07T00:07:46.311Z,6.15
2022-11-07T00:10:12.763Z,5.00
2022-11-07T00:12:39.384Z,4.05
2022-11-07T00:15:06.543Z,3.65
2022-11-07T00:17:32.962Z,4.57
2022-11-07T00:19:59.376Z,5.28
2022-11-07T00:22:25.877Z,4.45
2022-11-07T00:24:52.458Z,5.72
2022-11-07T00:27:18.868Z,4.68
2022-11-07T00:29:45.439Z,4.68
2022-11-07T00:32:11.826Z,4.47
2022-11-07T00:34:38.222Z,5.00
2022-11-07T00:37:04.594Z,4.85
2022-11-07T00:39:31.052Z,4.47
2022-11-07T00:41:57.490Z,3.80
2022-11-07T00:44:23.932Z,6.68
2022-11-07T00:46:50.296Z,4.05
2022-11-07T00:49:16.804Z,5.03
2022-11-07T00:51:43.206Z,7.38
2022-11-07T00:54:09.604Z,5.32
2022-11-07T00:56:35.959Z,5.60
2022-11-07T00:59:02.387Z,8.00
2022-11-07T01:01:32.491Z,4.70
2022-11-07T01:04:18.306Z,7.57
2022-11-07T01:06:46.077Z,8.32
2022-11-07T01:09:15.203Z,5.53
2022-11-07T01:11:42.426Z,9.05
2022-11-07T01:14:09.777Z,5.78
2022-11-07T01:16:38.722Z,8.93
2022-11-07T01:19:06.897Z,6.55
2022-11-07T01:21:33.436Z,5.35
2022-11-07T01:24:00.395Z,7.22
2022-11-07T01:26:27.156Z,7.70
2022-11-07T01:28:53.522Z,6.50
2022-11-07T01:31:20.067Z,7.72
2022-11-07T01:33:46.958Z,9.23
2022-11-07T01:36:15.996Z,7.55
2022-11-07T01:38:45.294Z,5.70
2022-11-07T01:41:21.568Z,10.48
2022-11-07T01:43:57.158Z,6.35
2022-11-07T01:46:37.971Z,7.28
2022-11-07T01:49:11.406Z,7.63
2022-11-07T01:51:51.809Z,6.55
2022-11-07T01:54:22.261Z,6.28
2022-11-07T01:56:49.530Z,5.82
2022-11-07T01:59:22.550Z,8.10
2022-11-07T02:01:49.290Z,6.97
2022-11-07T02:04:17.327Z,6.20
2022-11-07T02:06:48.275Z,7.43
2022-11-07T02:09:15.065Z,5.60
2022-11-07T02:11:41.464Z,5.28
2022-11-07T02:14:07.966Z,6.55
2022-11-07T02:16:35.935Z,6.50
2022-11-07T02:19:07.464Z,4.53
2022-11-07T02:21:48.441Z,4.93
2022-11-07T02:24:28.798Z,5.40
2022-11-07T02:26:57.903Z,4.80
2022-11-07T02:29:26.867Z,4.57
2022-11-07T02:32:03.842Z,5.10
2022-11-07T02:34:30.721Z,4.93
2022-11-07T02:36:58.206Z,4.90
2022-11-07T02:39:24.663Z,4.85
2022-11-07T02:41:53.164Z,4.97
2022-11-07T02:44:20.232Z,5.05
2022-11-07T02:46:46.668Z,4.93
2022-11-07T02:49:13.182Z,4.68
2022-11-07T02:51:39.527Z,5.90
2022-11-07T02:54:06.030Z,6.55
2022-11-07T02:56:32.384Z,6.60
2022-11-07T02:58:58.796Z,6.75
2022-11-07T03:01:25.395Z,7.90
2022-11-07T03:03:52.019Z,6.18
2022-11-07T03:06:23.205Z,5.70
2022-11-07T03:08:49.657Z,6.32
2022-11-07T03:11:19.613Z,4.90
2022-11-07T03:13:47.595Z,5.97
2022-11-07T03:16:15.680Z,5.55
2022-11-07T03:18:42.114Z,5.03
2022-11-07T03:21:08.627Z,5.32
2022-11-07T03:23:36.230Z,8.52
2022-11-07T03:26:03.843Z,5.22
2022-11-07T03:28:30.512Z,5.35
2022-11-07T03:31:00.756Z,5.38
2022-11-07T03:33:28.830Z,5.85
2022-11-07T03:35:55.260Z,6.38
2022-11-07T03:38:21.654Z,8.27
2022-11-07T03:40:47.994Z,7.25
2022-11-07T03:43:14.716Z,4.45
2022-11-07T03:45:41.685Z,8.10
2022-11-07T03:48:08.080Z,5.00
2022-11-07T03:50:34.506Z,7.68
2022-11-07T03:53:00.913Z,8.25
2022-11-07T03:55:27.254Z,7.00
2022-11-07T03:57:53.620Z,7.63
2022-11-07T04:00:20.236Z,6.32
2022-11-07T04:02:46.718Z,7.00
2022-11-07T04:05:13.238Z,6.15
2022-11-07T04:07:39.643Z,5.93
2022-11-07T04:10:06.475Z,5.75
2022-11-07T04:12:51.588Z,6.72
2022-11-07T04:15:37.089Z,4.53
2022-11-07T04:18:03.620Z,4.70
2022-11-07T04:20:30.027Z,4.90
2022-11-07T04:22:56.392Z,6.95
2022-11-07T04:25:42.856Z,5.88
2022-11-07T04:28:09.281Z,5.78
2022-11-07T04:30:35.715Z,5.03
2022-11-07T04:33:02.584Z,6.53
2022-11-07T04:35:31.422Z,4.93
2022-11-07T04:37:58.674Z,5.55
2022-11-07T04:40:25.543Z,7.50
2022-11-07T04:42:52.063Z,4.10
2022-11-07T04:45:18.539Z,4.43
2022-11-07T04:47:45.192Z,5.90
2022-11-07T04:50:13.740Z,7.18
2022-11-07T04:52:40.669Z,3.78
2022-11-07T04:55:09.028Z,5.68
2022-11-07T04:57:35.468Z,5.55
2022-11-07T05:00:02.526Z,5.78
2022-11-07T05:02:29.093Z,7.45
2022-11-07T05:04:55.653Z,5.40
2022-11-07T05:07:22.078Z,5.10
2022-11-07T05:09:48.446Z,4.47
2022-11-07T05:12:14.845Z,5.35
2022-11-07T05:14:41.349Z,3.97
2022-11-07T05:17:07.756Z,4.55
2022-11-07T05:19:34.208Z,5.45
2022-11-07T05:22:19.342Z,5.95
2022-11-07T05:24:45.715Z,7.57
2022-11-07T05:27:19.417Z,6.38
2022-11-07T05:29:45.974Z,6.40
2022-11-07T05:32:12.994Z,5.13
2022-11-07T05:34:39.896Z,5.15
2022-11-07T05:37:11.356Z,5.82
2022-11-07T05:39:37.967Z,5.45
2022-11-07T05:42:04.873Z,5.35
2022-11-07T05:44:31.513Z,5.90
2022-11-07T05:46:58.524Z,7.18
2022-11-07T05:49:25.456Z,4.53
2022-11-07T05:51:52.078Z,4.72
2022-11-07T05:54:18.669Z,3.75
2022-11-07T05:56:45.167Z,4.30
2022-11-07T05:59:12.306Z,5.82
2022-11-07T06:01:38.777Z,6.05
2022-11-07T06:04:06.146Z,7.25
2022-11-07T06:06:32.856Z,6.45
2022-11-07T06:08:59.235Z,3.50
2022-11-07T06:11:25.690Z,4.57
2022-11-07T06:13:53.807Z,4.25
2022-11-07T06:16:20.694Z,3.75
2022-11-07T06:18:47.048Z,3.97
2022-11-07T06:21:13.918Z,4.00
2022-11-07T06:23:48.376Z,6.63
2022-11-07T06:26:24.793Z,5.38
2022-11-07T06:28:54.100Z,6.07
2022-11-07T06:31:20.594Z,6.30
2022-11-07T06:33:50.068Z,6.85
2022-11-07T06:36:16.928Z,6.32
2022-11-07T06:38:43.645Z,5.53
2022-11-07T06:41:12.786Z,7.30
2022-11-07T06:43:39.878Z,6.10
2022-11-07T06:46:10.545Z,5.75
2022-11-07T06:48:37.276Z,4.45
2022-11-07T06:51:05.406Z,5.82
2022-11-07T06:53:31.922Z,5.85
2022-11-07T06:56:03.030Z,4.72
2022-11-07T06:58:29.442Z,6.45
2022-11-07T07:01:04.000Z,5.25
2022-11-07T07:03:30.642Z,6.38
2022-11-07T07:06:06.228Z,5.53
2022-11-07T07:08:33.715Z,9.60
2022-11-07T07:11:05.134Z,4.90
2022-11-07T07:13:32.041Z,9.65
2022-11-07T07:16:03.645Z,6.88
2022-11-07T07:18:33.056Z,3.80
2022-11-07T07:21:13.051Z,5.40
2022-11-07T07:23:39.744Z,6.35
2022-11-07T07:26:09.876Z,4.30
2022-11-07T07:28:37.382Z,7.72
2022-11-07T07:31:18.495Z,7.75
2022-11-07T07:33:46.746Z,6.55
2022-11-07T07:36:19.251Z,3.83
2022-11-07T07:38:47.725Z,5.75
2022-11-07T07:41:14.098Z,7.43
2022-11-07T07:43:40.488Z,6.88
2022-11-07T07:46:08.182Z,4.30
2022-11-07T07:48:35.142Z,5.45
2022-11-07T07:51:01.814Z,5.38
2022-11-07T07:53:28.384Z,5.97
2022-11-07T07:55:59.232Z,6.72
2022-11-07T07:58:26.714Z,3.90
2022-11-07T08:00:54.092Z,5.82
2022-11-07T08:03:20.848Z,5.25
2022-11-07T08:05:53.615Z,6.28
2022-11-07T08:08:20.304Z,4.95
2022-11-07T08:10:46.757Z,8.43
2022-11-07T08:13:13.314Z,7.07
2022-11-07T08:15:39.894Z,6.25
2022-11-07T08:18:06.482Z,4.57
2022-11-07T08:20:32.922Z,6.82
2022-11-07T08:23:11.282Z,5.53
2022-11-07T08:25:42.934Z,5.63
2022-11-07T08:28:09.326Z,8.88
2022-11-07T08:30:35.867Z,6.05
2022-11-07T08:33:03.164Z,5.57
2022-11-07T08:35:33.432Z,5.63
2022-11-07T08:38:02.256Z,4.97
2022-11-07T08:40:28.747Z,6.53
2022-11-07T08:43:01.423Z,5.88
2022-11-07T08:45:27.798Z,3.92
2022-11-07T08:48:00.464Z,9.30
2022-11-07T08:50:27.238Z,8.07
2022-11-07T08:52:59.572Z,5.90
2022-11-07T08:55:28.947Z,8.18
2022-11-07T08:58:04.025Z,6.18
2022-11-07T09:00:30.856Z,5.07
2022-11-07T09:03:38.878Z,5.32
2022-11-07T09:05:47.967Z,4.72
2022-11-07T09:08:14.389Z,5.65
2022-11-07T09:10:40.863Z,6.88
2022-11-07T09:13:07.327Z,5.78
2022-11-07T09:15:33.840Z,6.25
2022-11-07T09:18:05.403Z,7.00
2022-11-07T09:20:33.083Z,13.18
2022-11-07T09:23:00.041Z,7.50
2022-11-07T09:25:27.404Z,4.47
2022-11-07T09:27:54.365Z,10.18
2022-11-07T09:30:21.544Z,5.47
2022-11-07T09:32:47.993Z,10.40
2022-11-07T09:35:14.817Z,5.60
2022-11-07T09:37:41.935Z,6.78
2022-11-07T09:40:21.352Z,6.88
2022-11-07T09:43:34.362Z,8.25
2022-11-07T09:46:13.306Z,4.47
2022-11-07T09:48:54.330Z,9.30
2022-11-07T09:51:29.121Z,6.43
2022-11-07T09:54:01.348Z,10.32
2022-11-07T09:56:30.960Z,5.35
2022-11-07T09:59:02.201Z,7.13
2022-11-07T10:01:31.805Z,7.75
2022-11-07T10:04:27.383Z,5.28
2022-11-07T10:07:10.663Z,7.75
2022-11-07T10:09:44.553Z,8.25
2022-11-07T10:12:32.263Z,6.72
2022-11-07T10:15:23.566Z,6.88
2022-11-07T10:17:54.581Z,5.80
2022-11-07T10:20:42.823Z,6.03
2022-11-07T10:23:24.167Z,5.47
2022-11-07T10:25:59.668Z,7.35
2022-11-07T10:28:29.741Z,7.15
2022-11-07T10:30:59.403Z,8.88
2022-11-07T10:33:42.010Z,5.53
2022-11-07T10:36:21.857Z,5.78
2022-11-07T10:38:48.454Z,4.93
2022-11-07T10:41:18.053Z,8.00
2022-11-07T10:43:49.980Z,10.73
2022-11-07T10:46:24.487Z,9.07
2022-11-07T10:48:52.645Z,4.82
2022-11-07T10:51:19.201Z,5.60
2022-11-07T10:53:46.011Z,7.28
2022-11-07T10:56:19.358Z,6.07
2022-11-07T10:58:46.062Z,8.30
2022-11-07T11:01:13.163Z,10.20
2022-11-07T11:03:45.185Z,7.13
2022-11-07T11:06:18.146Z,5.78
2022-11-07T11:08:50.036Z,6.55
2022-11-07T11:11:28.855Z,7.82
2022-11-07T11:14:13.018Z,6.63
2022-11-07T11:16:42.497Z,5.88
2022-11-07T11:19:27.246Z,6.68
2022-11-07T11:21:58.424Z,6.78
2022-11-07T11:24:39.060Z,7.22
2022-11-07T11:27:20.354Z,8.23
2022-11-07T11:30:05.214Z,5.22
2022-11-07T11:32:37.168Z,8.20
2022-11-07T11:35:15.809Z,9.50
2022-11-07T11:37:45.567Z,12.48
2022-11-07T11:40:17.188Z,7.63
2022-11-07T11:42:57.303Z,4.82
2022-11-07T11:45:33.141Z,4.43
2022-11-07T11:48:09.895Z,5.97
2022-11-07T11:50:39.423Z,6.35
2022-11-07T11:53:14.227Z,9.63
2022-11-07T11:55:52.392Z,5.40
2022-11-07T11:58:46.010Z,8.52
2022-11-07T12:04:27.702Z,5.15
2022-11-07T12:07:11.859Z,8.43
2022-11-07T12:09:48.061Z,18.63
2022-11-07T12:12:33.111Z,11.10
2022-11-07T12:15:02.964Z,9.13
2022-11-07T12:17:47.866Z,7.82
2022-11-07T12:20:25.401Z,4.47
2022-11-07T12:23:45.975Z,8.93
2022-11-07T12:26:36.312Z,8.52
2022-11-07T12:29:20.319Z,7.80
2022-11-07T12:32:23.371Z,8.25
2022-11-07T12:35:08.179Z,5.72
2022-11-07T12:38:02.310Z,5.75
2022-11-07T12:40:50.178Z,7.18
2022-11-07T12:43:31.694Z,8.57
2022-11-07T12:46:07.162Z,7.22
2022-11-07T12:48:33.577Z,8.07
2022-11-07T12:51:29.502Z,5.28
2022-11-07T12:54:00.007Z,5.63
2022-11-07T12:56:38.218Z,6.07
2022-11-07T12:59:22.515Z,7.35
2022-11-07T13:01:59.557Z,7.10
2022-11-07T13:04:41.282Z,13.63
2022-11-07T13:07:24.423Z,8.50
2022-11-07T13:10:12.651Z,7.75
2022-11-07T13:12:52.388Z,8.75
2022-11-07T13:15:19.109Z,7.13
2022-11-07T13:17:47.121Z,5.22
2022-11-07T13:20:22.589Z,6.38
2022-11-07T13:22:51.003Z,6.10
2022-11-07T13:25:17.707Z,6.43
2022-11-07T13:27:53.384Z,5.97
2022-11-07T13:30:21.161Z,7.13
2022-11-07T13:32:50.296Z,3.83
2022-11-07T13:35:22.537Z,10.13
2022-11-07T13:38:08.521Z,4.97
2022-11-07T13:40:38.889Z,5.20
2022-11-07T13:43:22.166Z,5.97
2022-11-07T13:48:47.734Z,8.32
2022-11-07T13:51:34.019Z,6.88
2022-11-07T13:54:14.487Z,7.75
2022-11-07T13:56:43.420Z,7.50
2022-11-07T13:59:36.449Z,6.07
2022-11-07T14:04:32.058Z,6.05
2022-11-07T14:07:04.371Z,4.25
2022-11-07T14:09:31.773Z,5.45
2022-11-07T14:11:59.499Z,6.93
2022-11-07T14:14:27.299Z,6.38
2022-11-07T14:17:00.525Z,5.47
2022-11-07T14:19:30.085Z,7.47
2022-11-07T14:21:56.782Z,6.00
2022-11-07T14:24:29.431Z,3.35
2022-11-07T14:27:01.096Z,3.85
2022-11-07T14:29:28.425Z,6.88
2022-11-07T14:31:59.001Z,11.25
2022-11-07T14:34:25.762Z,9.77
2022-11-07T14:36:55.470Z,7.22
2022-11-07T14:39:23.487Z,6.35
2022-11-07T14:41:50.947Z,6.60
2022-11-07T14:44:20.456Z,6.05
2022-11-07T14:46:48.492Z,7.15
2022-11-07T14:49:23.359Z,5.50
2022-11-07T14:51:49.968Z,6.82
2022-11-07T14:54:20.755Z,7.63
2022-11-07T14:56:53.584Z,8.63
2022-11-07T14:59:22.939Z,6.55
2022-11-07T15:02:21.854Z,8.63
2022-11-07T15:04:48.415Z,3.75
2022-11-07T15:07:17.506Z,7.82
2022-11-07T15:09:43.918Z,5.05
2022-11-07T15:12:20.473Z,7.32
2022-11-07T15:15:01.872Z,6.70
2022-11-07T15:17:29.080Z,6.85
2022-11-07T15:20:00.256Z,7.40
2022-11-07T15:22:35.738Z,5.70
2022-11-07T15:25:02.273Z,5.50
2022-11-07T15:27:32.856Z,5.13
2022-11-07T15:30:01.828Z,7.97
2022-11-07T15:32:34.464Z,6.60
2022-11-07T15:35:30.334Z,3.67
2022-11-07T15:37:56.461Z,5.80
2022-11-07T15:40:24.307Z,5.13
2022-11-07T15:42:50.778Z,5.20
2022-11-07T15:45:18.799Z,6.80
2022-11-07T15:47:46.512Z,6.53
2022-11-07T15:50:18.456Z,6.65
2022-11-07T15:52:46.109Z,4.35
2022-11-07T15:55:18.264Z,6.38
2022-11-07T15:57:46.652Z,5.67
2022-11-07T16:00:19.530Z,7.20
2022-11-07T16:05:14.172Z,7.68
2022-11-07T16:07:45.617Z,7.63
2022-11-07T16:10:22.705Z,3.90
2022-11-07T16:12:49.962Z,6.75
2022-11-07T16:15:19.143Z,4.00
2022-11-07T16:17:45.960Z,6.07
2022-11-07T16:20:15.749Z,7.63
2022-11-07T16:22:43.752Z,6.20
2022-11-07T16:25:22.148Z,6.38
2022-11-07T16:27:54.827Z,5.07
2022-11-07T16:30:22.346Z,3.58
2022-11-07T16:32:48.814Z,4.05
2022-11-07T16:35:15.572Z,5.65
2022-11-07T16:37:42.068Z,6.65
2022-11-07T16:40:13.640Z,3.95
2022-11-07T16:42:40.166Z,5.97
2022-11-07T16:45:07.802Z,6.25
2022-11-07T16:47:38.117Z,3.05
2022-11-07T16:50:05.772Z,6.00
2022-11-07T16:52:32.192Z,5.88
2022-11-07T16:54:59.081Z,5.38
2022-11-07T16:57:26.090Z,7.47
2022-11-07T16:59:52.661Z,7.22
2022-11-07T17:02:24.862Z,6.25
2022-11-07T17:04:53.384Z,5.68
2022-11-07T17:07:22.670Z,10.43
2022-11-07T17:09:49.785Z,7.20
2022-11-07T17:12:22.904Z,6.93
2022-11-07T17:14:49.868Z,9.38
2022-11-07T17:17:20.041Z,5.60
2022-11-07T17:19:46.871Z,6.38
2022-11-07T17:22:14.314Z,16.50
2022-11-07T17:24:42.805Z,6.82
2022-11-07T17:27:19.787Z,4.45
2022-11-07T17:29:46.186Z,15.80
2022-11-07T17:32:12.539Z,5.03
2022-11-07T17:34:42.024Z,8.65
2022-11-07T17:37:13.937Z,7.65
2022-11-07T17:39:40.357Z,8.07
2022-11-07T17:42:08.377Z,6.60
2022-11-07T17:44:34.748Z,8.27
2022-11-07T17:47:02.574Z,7.93
2022-11-07T17:49:29.106Z,8.68
2022-11-07T17:51:55.919Z,19.70
2022-11-07T17:54:28.206Z,10.30
2022-11-07T17:56:55.892Z,9.15
2022-11-07T17:59:23.275Z,8.00
2022-11-07T18:01:49.863Z,5.68
2022-11-07T18:04:16.369Z,7.32
2022-11-07T18:06:43.493Z,7.00
2022-11-07T18:09:15.487Z,5.85
2022-11-07T18:11:42.378Z,7.95
2022-11-07T18:14:11.032Z,6.70
2022-11-07T18:16:37.682Z,5.30
2022-11-07T18:19:05.699Z,4.57
2022-11-07T18:21:32.878Z,4.72
2022-11-07T18:24:00.560Z,4.35
2022-11-07T18:26:33.385Z,4.13
2022-11-07T18:29:02.890Z,5.63
2022-11-07T18:31:29.615Z,7.50
2022-11-07T18:33:58.036Z,6.38
2022-11-07T18:36:25.683Z,5.88
2022-11-07T18:38:52.152Z,7.32
2022-11-07T18:41:21.643Z,7.28
2022-11-07T18:43:49.023Z,5.88
2022-11-07T18:46:19.086Z,4.03
2022-11-07T18:48:45.824Z,5.25
2022-11-07T18:51:16.305Z,6.47
2022-11-07T18:53:43.797Z,10.52
2022-11-07T18:56:11.439Z,13.18
2022-11-07T18:58:38.408Z,10.18
2022-11-07T19:01:08.947Z,9.50
2022-11-07T19:03:36.479Z,10.07
2022-11-07T19:06:07.488Z,12.55
2022-11-07T19:08:36.396Z,14.35
2022-11-07T19:11:05.093Z,24.33
2022-11-07T19:13:31.634Z,29.25
2022-11-07T19:16:00.707Z,23.13
2022-11-07T19:18:27.124Z,18.27
2022-11-07T19:20:56.325Z,13.10
2022-11-07T19:23:22.761Z,12.82
2022-11-07T19:25:49.679Z,13.25
2022-11-07T19:28:16.573Z,11.48
2022-11-07T19:30:43.952Z,10.90
2022-11-07T19:33:10.931Z,10.30
2022-11-07T19:35:39.488Z,8.32
2022-11-07T19:38:08.986Z,9.32
2022-11-07T19:40:36.221Z,7.90
2022-11-07T19:43:04.159Z,9.95
2022-11-07T19:45:31.339Z,10.43
2022-11-07T19:47:57.845Z,9.00
2022-11-07T19:50:24.204Z,9.15
2022-11-07T19:52:50.643Z,10.95
2022-11-07T19:55:17.072Z,9.10
2022-11-07T19:57:43.482Z,7.18
2022-11-07T20:00:11.189Z,11.48
2022-11-07T20:02:44.188Z,7.72
2022-11-07T20:05:11.342Z,7.45
2022-11-07T20:07:38.689Z,7.95
2022-11-07T20:10:06.198Z,6.97
2022-11-07T20:12:32.793Z,9.90
2022-11-07T20:14:59.822Z,9.18
2022-11-07T20:17:26.280Z,8.05
2022-11-07T20:19:52.855Z,7.35
2022-11-07T20:22:19.215Z,7.15
2022-11-07T20:24:45.603Z,8.13
2022-11-07T20:27:12.206Z,5.32
2022-11-07T20:29:38.721Z,8.75
2022-11-07T20:32:05.304Z,7.80
2022-11-07T20:34:31.817Z,14.18
2022-11-07T20:36:58.356Z,20.35
2022-11-07T20:39:24.773Z,22.58
2022-11-07T20:41:51.125Z,27.70
2022-11-07T20:44:17.671Z,23.17
2022-11-07T20:46:45.464Z,17.92
2022-11-07T20:49:14.676Z,13.88
2022-11-07T20:51:42.516Z,13.07
2022-11-07T20:54:13.682Z,11.02
2022-11-07T20:56:40.411Z,10.73
2022-11-07T20:59:07.456Z,11.35
2022-11-07T21:01:37.564Z,12.55
2022-11-07T21:04:09.041Z,13.25
2022-11-07T21:06:35.524Z,18.50
2022-11-07T21:09:01.896Z,24.80
2022-11-07T21:11:30.354Z,26.27
2022-11-07T21:13:57.612Z,24.88
2022-11-07T21:16:25.453Z,23.33
2022-11-07T21:18:53.059Z,23.42
2022-11-07T21:21:29.278Z,23.48
2022-11-07T21:23:57.264Z,21.02
2022-11-07T21:26:27.388Z,15.30
2022-11-07T21:28:54.991Z,14.38
2022-11-07T21:31:24.808Z,13.65
2022-11-07T21:33:51.936Z,9.73
2022-11-07T21:36:23.280Z,9.82
2022-11-07T21:38:49.985Z,9.55
2022-11-07T21:41:17.008Z,7.90
2022-11-07T21:43:43.863Z,8.55
2022-11-07T21:46:14.500Z,9.82
2022-11-07T21:48:41.693Z,9.50
2022-11-07T21:51:13.583Z,9.45
2022-11-07T21:53:40.251Z,10.15
2022-11-07T21:56:07.874Z,8.40
2022-11-07T21:58:34.601Z,10.27
2022-11-07T22:01:05.780Z,18.38
2022-11-07T22:04:03.715Z,18.48
2022-11-07T22:06:20.007Z,20.08
2022-11-07T22:08:47.952Z,16.20
2022-11-07T22:11:15.395Z,15.13
2022-11-07T22:13:42.346Z,11.45
2022-11-07T22:16:14.934Z,12.02
2022-11-07T22:18:41.808Z,12.13
2022-11-07T22:21:10.236Z,13.25
2022-11-07T22:23:37.779Z,13.57
2022-11-07T22:26:14.380Z,14.45
2022-11-07T22:28:45.860Z,11.57
2022-11-07T22:31:15.799Z,10.40
2022-11-07T22:33:42.220Z,8.73
2022-11-07T22:36:10.576Z,9.23
2022-11-07T22:38:38.579Z,9.88
2022-11-07T22:41:07.125Z,9.65
2022-11-07T22:43:34.687Z,9.18
2022-11-07T22:46:07.383Z,6.95
2022-11-07T22:48:34.750Z,7.18
2022-11-07T22:51:12.101Z,6.80
2022-11-07T22:53:39.142Z,5.32
2022-11-07T22:56:09.361Z,5.45
2022-11-07T22:58:36.516Z,5.15
2022-11-07T23:01:03.518Z,5.10
2022-11-07T23:03:31.741Z,4.80
2022-11-07T23:06:03.991Z,5.85
2022-11-07T23:08:32.990Z,5.63
2022-11-07T23:11:44.162Z,11.60
2022-11-07T23:13:53.347Z,8.20
2022-11-07T23:16:29.762Z,5.68
2022-11-07T23:18:59.837Z,6.20
2022-11-07T23:21:26.843Z,5.75
2022-11-07T23:23:54.939Z,8.10
2022-11-07T23:26:21.731Z,6.45
2022-11-07T23:28:48.553Z,5.95
2022-11-07T23:31:14.951Z,7.90
2022-11-07T23:33:41.823Z,7.63
2022-11-07T23:36:12.966Z,7.03
2022-11-07T23:38:39.667Z,6.93
2022-11-07T23:41:08.104Z,6.72
2022-11-07T23:43:34.851Z,4.72
2022-11-07T23:46:20.398Z,8.30
2022-11-07T23:49:09.413Z,8.05
2022-11-07T23:51:39.931Z,6.40
2022-11-07T23:54:25.191Z,6.85
2022-11-07T23:56:51.629Z,5.60
2022-11-07T23:59:36.403Z,8.07
